Time;durP1;ratioP1;P1;durP2;ratioP2;P2;SDS_P1;SDS_P2;PMS_P1;PMS_P2;Temp;Humidity;BMP_temperature;BMP_pressure;BME280_temperature;BME280_humidity;BME280_pressure;Samples;Min_cycle;Max_cycle;Signal;HPM_P1;HPM_P2
2023/10/24 00:00:14;;;;;;;2.20;1.70;;;;;;;;;;5018642;28;20206;-60
2023/10/24 00:02:42;;;;;;;1.77;1.30;;;;;;;;;;5018945;28;20214;-60
2023/10/24 00:05:10;;;;;;;1.70;1.60;;;;;;;;;;5018942;28;20214;-60
2023/10/24 00:07:37;;;;;;;1.70;1.60;;;;;;;;;;5018732;28;20503;-60
2023/10/24 00:10:05;;;;;;;1.90;1.70;;;;;;;;;;5018905;28;20612;-60
2023/10/24 00:12:33;;;;;;;1.90;1.50;;;;;;;;;;5018737;28;20574;-60
2023/10/24 00:15:00;;;;;;;1.60;1.50;;;;;;;;;;5018933;28;20213;-60
2023/10/24 00:17:28;;;;;;;1.70;1.60;;;;;;;;;;5018642;28;20566;-60
2023/10/24 00:19:57;;;;;;;1.50;1.40;;;;;;;;;;5018710;28;20350;-60
2023/10/24 00:22:24;;;;;;;1.70;1.60;;;;;;;;;;5018640;28;20285;-60
2023/10/24 00:24:52;;;;;;;1.77;1.67;;;;;;;;;;5018340;28;20252;-60
2023/10/24 00:27:20;;;;;;;1.63;1.52;;;;;;;;;;5018256;28;20293;-60
2023/10/24 00:29:47;;;;;;;1.98;1.58;;;;;;;;;;5018585;28;20453;-60
2023/10/24 00:32:15;;;;;;;1.83;1.42;;;;;;;;;;5018225;28;20250;-60
2023/10/24 00:34:43;;;;;;;2.15;1.95;;;;;;;;;;5018152;28;20246;-60
2023/10/24 00:37:11;;;;;;;1.60;1.50;;;;;;;;;;5017928;28;20214;-60
2023/10/24 00:39:39;;;;;;;1.60;1.50;;;;;;;;;;5018037;28;20268;-60
2023/10/24 00:42:06;;;;;;;1.48;1.38;;;;;;;;;;5018396;28;20206;-60
2023/10/24 00:44:34;;;;;;;1.63;1.50;;;;;;;;;;5017933;28;20253;-60
2023/10/24 00:47:02;;;;;;;1.63;1.52;;;;;;;;;;5018185;28;20210;-60
2023/10/24 00:49:30;;;;;;;1.60;1.50;;;;;;;;;;5017275;28;20325;-60
2023/10/24 00:51:59;;;;;;;1.38;1.27;;;;;;;;;;5017753;28;20218;-60
2023/10/24 00:54:29;;;;;;;1.50;1.40;;;;;;;;;;5017864;28;20216;-60
2023/10/24 00:56:57;;;;;;;1.65;1.50;;;;;;;;;;5017685;28;20272;-60
2023/10/24 00:59:25;;;;;;;1.52;1.40;;;;;;;;;;5018190;28;20202;-60
2023/10/24 01:01:53;;;;;;;1.65;1.45;;;;;;;;;;5017989;28;20210;-60
2023/10/24 01:04:22;;;;;;;2.50;1.83;;;;;;;;;;5017665;28;20267;-60
2023/10/24 01:06:49;;;;;;;1.60;1.50;;;;;;;;;;5017817;28;20498;-60
2023/10/24 01:09:17;;;;;;;1.55;1.40;;;;;;;;;;5017862;28;20225;-60
2023/10/24 01:11:46;;;;;;;1.42;1.33;;;;;;;;;;5017855;28;20206;-60
2023/10/24 01:14:13;;;;;;;1.40;1.30;;;;;;;;;;5017466;28;20245;-60
2023/10/24 01:16:46;;;;;;;1.58;1.48;;;;;;;;;;5017444;28;20206;-60
2023/10/24 01:19:13;;;;;;;1.50;1.40;;;;;;;;;;5017725;28;20242;-60
2023/10/24 01:21:44;;;;;;;1.60;1.50;;;;;;;;;;5017742;28;20345;-60
2023/10/24 01:24:12;;;;;;;1.35;1.25;;;;;;;;;;5017251;28;20234;-59
2023/10/24 01:26:40;;;;;;;1.40;1.30;;;;;;;;;;5017321;28;20217;-59
2023/10/24 01:29:07;;;;;;;1.30;1.20;;;;;;;;;;5017623;28;20265;-59
2023/10/24 01:31:35;;;;;;;1.45;1.30;;;;;;;;;;5017728;28;20214;-59
2023/10/24 01:34:03;;;;;;;1.70;1.40;;;;;;;;;;5017400;28;20210;-59
2023/10/24 01:36:31;;;;;;;1.65;1.55;;;;;;;;;;5017515;28;20242;-59
2023/10/24 01:39:00;;;;;;;2.50;1.73;;;;;;;;;;5017447;28;20233;-60
2023/10/24 01:41:27;;;;;;;1.45;1.35;;;;;;;;;;5017221;28;20476;-60
2023/10/24 01:43:55;;;;;;;1.60;1.50;;;;;;;;;;5017576;28;20260;-60
2023/10/24 01:46:23;;;;;;;1.75;1.27;;;;;;;;;;5017436;28;20248;-60
2023/10/24 01:48:50;;;;;;;1.67;1.58;;;;;;;;;;5017468;28;20230;-60
2023/10/24 01:51:19;;;;;;;1.35;1.25;;;;;;;;;;5017328;28;20240;-60
2023/10/24 01:53:47;;;;;;;1.42;1.33;;;;;;;;;;5017513;28;20206;-60
2023/10/24 01:56:16;;;;;;;2.05;1.85;;;;;;;;;;5017015;28;20241;-60
2023/10/24 01:58:43;;;;;;;1.50;1.40;;;;;;;;;;5017179;28;20203;-60
2023/10/24 02:01:11;;;;;;;1.63;1.40;;;;;;;;;;5018082;28;20242;-60
2023/10/24 02:03:38;;;;;;;1.90;1.30;;;;;;;;;;5020986;28;20261;-60
2023/10/24 02:06:05;;;;;;;1.45;1.35;;;;;;;;;;5020943;28;20253;-60
2023/10/24 02:08:34;;;;;;;1.67;1.58;;;;;;;;;;5020662;28;20230;-60
2023/10/24 02:11:01;;;;;;;1.35;1.25;;;;;;;;;;5021384;28;20221;-60
2023/10/24 02:13:30;;;;;;;1.60;1.50;;;;;;;;;;5020791;28;20218;-60
2023/10/24 02:15:58;;;;;;;1.75;1.65;;;;;;;;;;5020664;28;20313;-60
2023/10/24 02:18:25;;;;;;;1.40;1.30;;;;;;;;;;5020259;28;20238;-60
2023/10/24 02:20:52;;;;;;;1.50;1.40;;;;;;;;;;5020393;28;20306;-59
2023/10/24 02:23:20;;;;;;;1.52;1.40;;;;;;;;;;5020163;28;20206;-59
2023/10/24 02:25:48;;;;;;;1.40;1.30;;;;;;;;;;5020152;28;20213;-59
2023/10/24 02:28:15;;;;;;;1.50;1.40;;;;;;;;;;5020736;28;20210;-59
2023/10/24 02:30:44;;;;;;;1.73;1.50;;;;;;;;;;5020449;28;20210;-59
2023/10/24 02:33:11;;;;;;;1.50;1.35;;;;;;;;;;5020332;28;20206;-60
2023/10/24 02:35:39;;;;;;;1.40;1.30;;;;;;;;;;5020382;28;20228;-60
2023/10/24 02:38:07;;;;;;;1.40;1.30;;;;;;;;;;5020620;28;20276;-60
2023/10/24 02:40:34;;;;;;;2.35;1.48;;;;;;;;;;5020273;28;20206;-60
2023/10/24 02:43:02;;;;;;;1.50;1.30;;;;;;;;;;5020228;28;20560;-60
2023/10/24 02:45:29;;;;;;;1.38;1.00;;;;;;;;;;5020248;28;20224;-60
2023/10/24 02:47:58;;;;;;;1.42;1.33;;;;;;;;;;5020340;28;20544;-60
2023/10/24 02:50:25;;;;;;;1.60;1.50;;;;;;;;;;5020464;28;20266;-59
2023/10/24 02:52:53;;;;;;;1.48;1.30;;;;;;;;;;5019624;28;20654;-59
2023/10/24 02:55:20;;;;;;;1.50;1.40;;;;;;;;;;5019638;28;20300;-59
2023/10/24 02:57:48;;;;;;;1.30;1.20;;;;;;;;;;5019810;28;20653;-59
2023/10/24 03:00:16;;;;;;;1.60;1.50;;;;;;;;;;5019962;28;20238;-59
2023/10/24 03:02:43;;;;;;;1.60;1.50;;;;;;;;;;5020085;28;20233;-60
2023/10/24 03:05:12;;;;;;;1.20;1.10;;;;;;;;;;5019589;28;20209;-60
2023/10/24 03:07:40;;;;;;;1.90;1.52;;;;;;;;;;5019911;28;20213;-60
2023/10/24 03:10:08;;;;;;;1.60;1.50;;;;;;;;;;5020016;28;20240;-60
2023/10/24 03:12:35;;;;;;;1.50;1.40;;;;;;;;;;5018846;28;20284;-60
2023/10/24 03:15:03;;;;;;;1.40;1.30;;;;;;;;;;5019718;28;20260;-60
2023/10/24 03:17:30;;;;;;;1.65;1.33;;;;;;;;;;5019405;28;20202;-60
2023/10/24 03:19:58;;;;;;;1.50;1.35;;;;;;;;;;5019644;28;20213;-60
2023/10/24 03:22:27;;;;;;;1.50;1.40;;;;;;;;;;5019161;28;20296;-60
2023/10/24 03:24:54;;;;;;;1.73;1.40;;;;;;;;;;5019421;28;20240;-60
2023/10/24 03:27:22;;;;;;;2.13;1.58;;;;;;;;;;5019167;28;20637;-60
2023/10/24 03:29:49;;;;;;;1.63;1.52;;;;;;;;;;5019353;28;20313;-60
2023/10/24 03:32:17;;;;;;;1.85;1.40;;;;;;;;;;5019056;28;20524;-60
2023/10/24 03:34:44;;;;;;;1.50;1.40;;;;;;;;;;5019518;28;20222;-60
2023/10/24 03:37:12;;;;;;;1.70;1.40;;;;;;;;;;5019096;28;20304;-60
2023/10/24 03:39:40;;;;;;;1.85;1.60;;;;;;;;;;5018752;28;20257;-60
2023/10/24 03:42:13;;;;;;;2.03;1.42;;;;;;;;;;5019092;28;20272;-60
2023/10/24 03:44:40;;;;;;;1.85;1.50;;;;;;;;;;5018880;28;20214;-60
2023/10/24 03:47:08;;;;;;;1.73;1.38;;;;;;;;;;5019106;28;20214;-60
2023/10/24 03:49:36;;;;;;;1.50;1.40;;;;;;;;;;5018089;28;20313;-60
2023/10/24 03:52:05;;;;;;;1.65;1.55;;;;;;;;;;5018043;28;20701;-60
2023/10/24 03:54:33;;;;;;;1.48;1.38;;;;;;;;;;5018062;28;20213;-60
2023/10/24 03:57:02;;;;;;;1.50;1.40;;;;;;;;;;5017924;28;20238;-60
2023/10/24 03:59:29;;;;;;;1.45;1.35;;;;;;;;;;5017944;28;20210;-60
2023/10/24 04:01:57;;;;;;;1.92;1.45;;;;;;;;;;5018095;28;20206;-60
2023/10/24 04:04:24;;;;;;;1.30;1.20;;;;;;;;;;5018766;28;20229;-60
2023/10/24 04:06:52;;;;;;;1.52;1.42;;;;;;;;;;5018074;28;20214;-60
2023/10/24 04:09:19;;;;;;;1.83;1.20;;;;;;;;;;5018145;28;20288;-60
2023/10/24 04:11:46;;;;;;;2.15;1.50;;;;;;;;;;5018446;28;20571;-60
2023/10/24 04:14:16;;;;;;;1.50;1.40;;;;;;;;;;5018165;28;20217;-60
2023/10/24 04:16:43;;;;;;;1.40;1.30;;;;;;;;;;5018123;28;20218;-60
2023/10/24 04:19:10;;;;;;;1.95;1.40;;;;;;;;;;5018409;28;20207;-60
2023/10/24 04:21:37;;;;;;;1.40;1.30;;;;;;;;;;5018012;28;20206;-60
2023/10/24 04:24:20;;;;;;;1.60;1.50;;;;;;;;;;4974142;28;20234;-60
2023/10/24 04:26:47;;;;;;;1.40;1.30;;;;;;;;;;5017657;28;20206;-60
2023/10/24 04:29:16;;;;;;;1.63;1.30;;;;;;;;;;5017984;28;20617;-60
2023/10/24 04:31:44;;;;;;;2.03;1.42;;;;;;;;;;5017543;28;20296;-60
2023/10/24 04:34:11;;;;;;;1.65;1.55;;;;;;;;;;5017229;28;20206;-60
2023/10/24 04:36:39;;;;;;;1.30;1.20;;;;;;;;;;5017169;28;20206;-60
2023/10/24 04:39:06;;;;;;;1.60;1.50;;;;;;;;;;5017163;28;20206;-60
2023/10/24 04:41:33;;;;;;;1.40;1.30;;;;;;;;;;5016849;28;20685;-60
2023/10/24 04:44:01;;;;;;;1.50;1.38;;;;;;;;;;5016775;28;20198;-59
2023/10/24 04:46:29;;;;;;;1.60;1.50;;;;;;;;;;5017435;28;20475;-60
2023/10/24 04:48:57;;;;;;;1.95;1.52;;;;;;;;;;5016207;28;20210;-60
2023/10/24 04:51:24;;;;;;;1.17;1.10;;;;;;;;;;5015957;28;20710;-60
2023/10/24 04:53:51;;;;;;;1.75;1.20;;;;;;;;;;5016518;28;20214;-60
2023/10/24 04:56:19;;;;;;;1.35;1.25;;;;;;;;;;5015906;28;20559;-60
2023/10/24 04:58:46;;;;;;;1.50;1.40;;;;;;;;;;5016018;28;20237;-60
2023/10/24 05:01:14;;;;;;;1.40;1.30;;;;;;;;;;5014172;28;20210;-60
2023/10/24 05:03:42;;;;;;;1.50;1.38;;;;;;;;;;5015456;28;20488;-60
2023/10/24 05:06:12;;;;;;;1.50;1.40;;;;;;;;;;5015735;28;20210;-60
2023/10/24 05:08:40;;;;;;;1.48;1.15;;;;;;;;;;5015302;28;20202;-60
2023/10/24 05:11:07;;;;;;;1.58;1.48;;;;;;;;;;5015279;28;20237;-60
2023/10/24 05:13:35;;;;;;;1.65;1.55;;;;;;;;;;5016135;28;20210;-60
2023/10/24 05:16:02;;;;;;;1.50;1.40;;;;;;;;;;5015808;28;20206;-60
2023/10/24 05:18:30;;;;;;;1.42;1.25;;;;;;;;;;5015250;28;20736;-60
2023/10/24 05:20:59;;;;;;;1.60;1.50;;;;;;;;;;5015157;28;20203;-60
2023/10/24 05:23:26;;;;;;;1.42;1.33;;;;;;;;;;5014169;28;20228;-60
2023/10/24 05:25:53;;;;;;;1.50;1.40;;;;;;;;;;5014445;28;20210;-60
2023/10/24 05:28:21;;;;;;;1.65;1.45;;;;;;;;;;5015026;28;20262;-60
2023/10/24 05:30:48;;;;;;;1.30;1.20;;;;;;;;;;5014433;28;20237;-60
2023/10/24 05:33:15;;;;;;;1.60;1.27;;;;;;;;;;5015313;28;20587;-60
2023/10/24 05:35:47;;;;;;;1.40;1.27;;;;;;;;;;5015552;28;20210;-60
2023/10/24 05:38:16;;;;;;;1.50;1.40;;;;;;;;;;5017836;28;20202;-60
2023/10/24 05:40:45;;;;;;;1.65;1.30;;;;;;;;;;5017896;28;20201;-60
2023/10/24 05:43:13;;;;;;;1.40;1.30;;;;;;;;;;5017989;28;20316;-60
2023/10/24 05:45:40;;;;;;;1.25;1.15;;;;;;;;;;5018101;28;20217;-60
2023/10/24 05:48:07;;;;;;;1.63;1.50;;;;;;;;;;5017473;28;20210;-60
2023/10/24 05:50:36;;;;;;;1.55;1.27;;;;;;;;;;5017586;28;20230;-60
2023/10/24 05:53:03;;;;;;;1.50;1.40;;;;;;;;;;5017914;28;20214;-60
2023/10/24 05:55:34;;;;;;;1.60;1.30;;;;;;;;;;5018620;28;20214;-60
2023/10/24 05:58:01;;;;;;;1.85;1.63;;;;;;;;;;5018366;28;20221;-60
2023/10/24 06:00:28;;;;;;;1.58;1.48;;;;;;;;;;5017160;28;20685;-60
2023/10/24 06:02:56;;;;;;;1.75;1.55;;;;;;;;;;5017976;28;20238;-60
2023/10/24 06:05:23;;;;;;;2.22;1.50;;;;;;;;;;5017806;28;20633;-60
2023/10/24 06:07:50;;;;;;;1.52;1.42;;;;;;;;;;5019198;28;20499;-60
2023/10/24 06:10:18;;;;;;;1.92;1.40;;;;;;;;;;5018917;28;20230;-60
2023/10/24 06:12:47;;;;;;;1.63;1.40;;;;;;;;;;5018362;28;20210;-60
2023/10/24 06:15:14;;;;;;;1.48;1.38;;;;;;;;;;5018783;28;20207;-60
2023/10/24 06:17:42;;;;;;;1.20;1.10;;;;;;;;;;5018490;28;20202;-60
2023/10/24 06:20:09;;;;;;;1.50;1.40;;;;;;;;;;5018131;28;20477;-60
2023/10/24 06:22:37;;;;;;;1.52;1.30;;;;;;;;;;5018598;28;20218;-60
2023/10/24 06:25:04;;;;;;;1.50;1.40;;;;;;;;;;5018199;28;20662;-60
2023/10/24 06:27:31;;;;;;;2.00;1.40;;;;;;;;;;5018255;28;20217;-60
2023/10/24 06:30:00;;;;;;;1.98;1.38;;;;;;;;;;5018327;28;20230;-60
2023/10/24 06:32:28;;;;;;;1.60;1.30;;;;;;;;;;5018891;28;20207;-60
2023/10/24 06:34:55;;;;;;;1.63;1.48;;;;;;;;;;5017858;28;20556;-60
2023/10/24 06:37:22;;;;;;;1.50;1.40;;;;;;;;;;5018001;28;20198;-60
2023/10/24 06:39:50;;;;;;;1.60;1.50;;;;;;;;;;5017816;28;20364;-60
2023/10/24 06:42:17;;;;;;;2.33;1.50;;;;;;;;;;5017538;28;20199;-60
2023/10/24 06:44:45;;;;;;;1.42;1.30;;;;;;;;;;5016993;28;20210;-60
2023/10/24 06:47:13;;;;;;;1.67;1.50;;;;;;;;;;5017034;28;20523;-60
2023/10/24 06:49:40;;;;;;;2.22;1.60;;;;;;;;;;5017761;28;20206;-60
2023/10/24 06:52:09;;;;;;;1.30;1.20;;;;;;;;;;5018534;28;20249;-60
2023/10/24 06:54:36;;;;;;;1.90;1.70;;;;;;;;;;5018074;28;20244;-60
2023/10/24 06:57:03;;;;;;;1.40;1.30;;;;;;;;;;5017633;28;20206;-60
2023/10/24 06:59:31;;;;;;;1.42;1.27;;;;;;;;;;5018199;28;20222;-60
2023/10/24 07:01:58;;;;;;;1.48;1.38;;;;;;;;;;5017517;28;20589;-60
2023/10/24 07:04:27;;;;;;;1.73;1.30;;;;;;;;;;5016305;28;20517;-60
2023/10/24 07:06:54;;;;;;;1.70;1.50;;;;;;;;;;5016973;28;20598;-60
2023/10/24 07:09:21;;;;;;;1.67;1.40;;;;;;;;;;5017232;28;20210;-60
2023/10/24 07:11:49;;;;;;;1.98;1.55;;;;;;;;;;5016765;28;20233;-60
2023/10/24 07:14:16;;;;;;;2.03;1.58;;;;;;;;;;5018071;28;20218;-60
2023/10/24 07:16:44;;;;;;;2.00;1.80;;;;;;;;;;5017776;28;20214;-60
2023/10/24 07:19:11;;;;;;;1.77;1.48;;;;;;;;;;5017063;28;20206;-60
2023/10/24 07:21:40;;;;;;;1.65;1.55;;;;;;;;;;5017428;28;20570;-60
2023/10/24 07:24:08;;;;;;;2.72;1.65;;;;;;;;;;5017784;28;20237;-59
2023/10/24 07:26:35;;;;;;;2.80;1.80;;;;;;;;;;5017096;28;20728;-59
2023/10/24 07:29:02;;;;;;;3.17;1.90;;;;;;;;;;5016144;28;20210;-60
2023/10/24 07:31:29;;;;;;;2.45;1.90;;;;;;;;;;5017105;28;20234;-60
2023/10/24 07:33:57;;;;;;;3.30;2.30;;;;;;;;;;5017351;28;20295;-60
2023/10/24 07:36:28;;;;;;;3.65;1.90;;;;;;;;;;5017090;28;20206;-60
2023/10/24 07:39:00;;;;;;;3.13;2.10;;;;;;;;;;5017171;28;20206;-60
2023/10/24 07:41:27;;;;;;;3.70;2.25;;;;;;;;;;5016177;28;20602;-60
2023/10/24 07:43:54;;;;;;;4.18;2.13;;;;;;;;;;5016842;28;20222;-60
2023/10/24 07:46:22;;;;;;;4.05;2.35;;;;;;;;;;5016801;28;20214;-60
2023/10/24 07:48:52;;;;;;;3.40;2.22;;;;;;;;;;5016696;28;20213;-60
2023/10/24 07:51:20;;;;;;;4.20;2.15;;;;;;;;;;5017141;28;20610;-60
2023/10/24 07:53:47;;;;;;;3.45;2.30;;;;;;;;;;5016634;28;20202;-60
2023/10/24 07:56:16;;;;;;;2.63;2.22;;;;;;;;;;5017067;28;20206;-60
2023/10/24 07:58:43;;;;;;;3.58;2.38;;;;;;;;;;5017115;28;20214;-60
2023/10/24 08:01:11;;;;;;;3.95;2.58;;;;;;;;;;5016730;28;20210;-60
2023/10/24 08:03:38;;;;;;;4.28;2.78;;;;;;;;;;5015551;28;20198;-60
2023/10/24 08:06:06;;;;;;;2.78;2.47;;;;;;;;;;5015708;28;20217;-60
2023/10/24 08:08:34;;;;;;;4.63;2.58;;;;;;;;;;5015239;28;20234;-60
2023/10/24 08:11:02;;;;;;;4.13;2.42;;;;;;;;;;5015840;28;20233;-60
2023/10/24 08:13:31;;;;;;;4.03;2.35;;;;;;;;;;5016188;28;20206;-60
2023/10/24 08:15:59;;;;;;;3.33;2.40;;;;;;;;;;5015218;28;20202;-60
2023/10/24 08:18:27;;;;;;;4.85;2.83;;;;;;;;;;5015930;28;20468;-60
2023/10/24 08:20:55;;;;;;;4.43;2.75;;;;;;;;;;5016132;28;20202;-60
2023/10/24 08:23:23;;;;;;;5.15;2.47;;;;;;;;;;5016058;28;20210;-60
2023/10/24 08:25:50;;;;;;;4.82;2.63;;;;;;;;;;5015781;28;20241;-59
2023/10/24 08:28:17;;;;;;;4.32;2.80;;;;;;;;;;5015783;28;20214;-59
2023/10/24 08:30:46;;;;;;;5.50;2.97;;;;;;;;;;5015980;28;20226;-59
2023/10/24 08:33:15;;;;;;;4.15;2.58;;;;;;;;;;5016266;28;20210;-59
2023/10/24 08:35:42;;;;;;;3.75;2.60;;;;;;;;;;5015684;28;20693;-59
2023/10/24 08:38:10;;;;;;;4.90;3.00;;;;;;;;;;5015665;28;20206;-59
2023/10/24 08:40:37;;;;;;;4.38;2.83;;;;;;;;;;5016039;28;20198;-59
2023/10/24 08:43:04;;;;;;;4.00;2.60;;;;;;;;;;5016071;28;20590;-59
2023/10/24 08:45:32;;;;;;;5.38;3.22;;;;;;;;;;5015447;28;20220;-60
2023/10/24 08:48:02;;;;;;;4.57;2.72;;;;;;;;;;5015728;28;20206;-60
2023/10/24 08:50:29;;;;;;;5.47;3.10;;;;;;;;;;5015882;28;20230;-60
2023/10/24 08:52:57;;;;;;;4.88;3.08;;;;;;;;;;5015096;28;20206;-60
2023/10/24 08:55:23;;;;;;;4.70;2.78;;;;;;;;;;5014633;28;20206;-60
2023/10/24 08:57:51;;;;;;;6.95;3.20;;;;;;;;;;5016350;28;20234;-60
2023/10/24 09:00:19;;;;;;;4.13;2.75;;;;;;;;;;5016316;28;20202;-60
2023/10/24 09:02:46;;;;;;;4.25;2.90;;;;;;;;;;5015069;28;20207;-60
2023/10/24 09:05:16;;;;;;;5.43;3.28;;;;;;;;;;5015673;28;20217;-60
2023/10/24 09:07:43;;;;;;;5.57;2.78;;;;;;;;;;5015601;28;20213;-59
2023/10/24 09:10:10;;;;;;;5.43;2.88;;;;;;;;;;5013061;28;20214;-59
2023/10/24 09:12:39;;;;;;;5.32;2.95;;;;;;;;;;5015604;28;20613;-59
2023/10/24 09:15:08;;;;;;;4.47;3.00;;;;;;;;;;5014970;28;20289;-59
2023/10/24 09:17:37;;;;;;;4.57;3.08;;;;;;;;;;5014089;28;20229;-59
2023/10/24 09:20:07;;;;;;;4.63;3.13;;;;;;;;;;5014575;28;20252;-59
2023/10/24 09:22:36;;;;;;;5.00;3.00;;;;;;;;;;5014801;28;20202;-60
2023/10/24 09:25:04;;;;;;;4.45;3.20;;;;;;;;;;5014398;28;20242;-60
2023/10/24 09:27:31;;;;;;;5.13;2.95;;;;;;;;;;5014688;28;20230;-60
2023/10/24 09:29:59;;;;;;;5.90;3.67;;;;;;;;;;5014691;28;20214;-60
2023/10/24 09:32:27;;;;;;;4.70;3.22;;;;;;;;;;5014636;28;20234;-60
2023/10/24 09:34:55;;;;;;;5.00;3.00;;;;;;;;;;5015166;28;20210;-60
2023/10/24 09:37:23;;;;;;;3.72;2.92;;;;;;;;;;5014176;28;20236;-60
2023/10/24 09:39:54;;;;;;;5.05;3.33;;;;;;;;;;5014408;28;20472;-60
2023/10/24 09:42:24;;;;;;;5.28;3.10;;;;;;;;;;5014008;28;20202;-60
2023/10/24 09:44:52;;;;;;;4.70;3.05;;;;;;;;;;5014283;28;20229;-60
2023/10/24 09:47:19;;;;;;;4.05;2.88;;;;;;;;;;5014165;28;20256;-60
2023/10/24 09:49:47;;;;;;;4.90;2.90;;;;;;;;;;5013999;28;20206;-60
2023/10/24 09:52:15;;;;;;;4.47;2.70;;;;;;;;;;5014655;28;20240;-60
2023/10/24 09:54:43;;;;;;;5.03;2.95;;;;;;;;;;5014292;28;20236;-60
2023/10/24 09:57:12;;;;;;;4.57;2.63;;;;;;;;;;5015094;28;20315;-60
2023/10/24 09:59:39;;;;;;;4.95;3.00;;;;;;;;;;5014582;28;20225;-60
2023/10/24 10:02:07;;;;;;;4.15;3.03;;;;;;;;;;5014535;28;20237;-60
2023/10/24 10:04:34;;;;;;;4.30;2.90;;;;;;;;;;5014260;28;20214;-60
2023/10/24 10:07:03;;;;;;;4.88;3.03;;;;;;;;;;5013496;28;20218;-60
2023/10/24 10:09:31;;;;;;;5.60;3.22;;;;;;;;;;5013494;28;20230;-60
2023/10/24 10:12:01;;;;;;;4.55;2.97;;;;;;;;;;5013465;28;20234;-60
2023/10/24 10:14:35;;;;;;;3.88;2.88;;;;;;;;;;5013736;28;20296;-59
2023/10/24 10:17:09;;;;;;;4.35;3.05;;;;;;;;;;5013732;28;20218;-59
2023/10/24 10:19:48;;;;;;;3.95;2.60;;;;;;;;;;5014274;28;20202;-59
2023/10/24 10:22:23;;;;;;;5.65;3.08;;;;;;;;;;5014401;28;20237;-59
2023/10/24 10:25:00;;;;;;;4.05;2.70;;;;;;;;;;5017717;28;20241;-59
2023/10/24 10:27:32;;;;;;;4.25;2.83;;;;;;;;;;5016236;28;20217;-59
2023/10/24 10:30:05;;;;;;;4.57;2.80;;;;;;;;;;5017178;28;20206;-59
2023/10/24 10:32:38;;;;;;;4.07;2.80;;;;;;;;;;5017207;28;20241;-59
2023/10/24 10:35:06;;;;;;;4.10;2.70;;;;;;;;;;5016343;28;20210;-59
2023/10/24 10:37:36;;;;;;;4.15;2.97;;;;;;;;;;5015982;28;20203;-59
2023/10/24 10:40:23;;;;;;;4.45;2.63;;;;;;;;;;5017446;28;20210;-59
2023/10/24 10:42:51;;;;;;;4.43;2.80;;;;;;;;;;5016408;28;20248;-59
2023/10/24 10:45:26;;;;;;;3.50;2.70;;;;;;;;;;5016726;28;20783;-59
2023/10/24 10:47:54;;;;;;;4.10;2.53;;;;;;;;;;5016410;28;20205;-59
2023/10/24 10:50:25;;;;;;;4.05;2.65;;;;;;;;;;5016180;28;20214;-59
2023/10/24 10:52:57;;;;;;;3.58;2.58;;;;;;;;;;5017318;28;20335;-60
2023/10/24 10:55:38;;;;;;;3.63;2.85;;;;;;;;;;5017412;28;20213;-60
2023/10/24 10:58:17;;;;;;;2.90;2.60;;;;;;;;;;5014792;28;20202;-60
2023/10/24 11:00:52;;;;;;;4.20;2.70;;;;;;;;;;5017309;28;20217;-60
2023/10/24 11:03:28;;;;;;;3.55;2.88;;;;;;;;;;5016114;28;20213;-60
2023/10/24 11:05:55;;;;;;;3.22;2.53;;;;;;;;;;5016328;28;20213;-60
2023/10/24 11:08:24;;;;;;;3.67;2.50;;;;;;;;;;5015739;28;20206;-60
2023/10/24 11:10:57;;;;;;;3.95;2.80;;;;;;;;;;5016527;28;20209;-60
2023/10/24 11:13:34;;;;;;;3.10;2.50;;;;;;;;;;5014636;28;20500;-60
2023/10/24 11:16:04;;;;;;;4.15;2.75;;;;;;;;;;5015873;28;20205;-60
2023/10/24 11:18:31;;;;;;;3.55;2.67;;;;;;;;;;5016738;28;20617;-60
2023/10/24 11:20:59;;;;;;;4.53;2.53;;;;;;;;;;5016720;28;20206;-60
2023/10/24 11:23:26;;;;;;;3.55;2.78;;;;;;;;;;5016562;28;20202;-60
2023/10/24 11:25:54;;;;;;;2.63;2.28;;;;;;;;;;5016395;28;20226;-60
2023/10/24 11:28:22;;;;;;;3.20;2.45;;;;;;;;;;5016145;28;20245;-60
2023/10/24 11:30:49;;;;;;;3.35;2.60;;;;;;;;;;5015895;28;20206;-60
2023/10/24 11:33:18;;;;;;;3.70;2.75;;;;;;;;;;5016283;28;20384;-60
2023/10/24 11:35:46;;;;;;;2.80;2.30;;;;;;;;;;5016099;28;20225;-60
2023/10/24 11:38:14;;;;;;;3.25;2.50;;;;;;;;;;5016243;28;20207;-60
2023/10/24 11:40:45;;;;;;;3.53;2.45;;;;;;;;;;5015635;28;20214;-60
2023/10/24 11:43:14;;;;;;;3.42;2.45;;;;;;;;;;5015101;28;20206;-60
2023/10/24 11:45:41;;;;;;;3.50;2.55;;;;;;;;;;5015238;28;20218;-60
2023/10/24 11:48:09;;;;;;;3.42;2.30;;;;;;;;;;5015424;28;20582;-60
2023/10/24 11:50:38;;;;;;;3.33;2.25;;;;;;;;;;5015890;28;20202;-60
2023/10/24 11:53:06;;;;;;;4.93;2.72;;;;;;;;;;5014797;28;20222;-60
2023/10/24 11:55:33;;;;;;;3.28;2.40;;;;;;;;;;5015836;28;20210;-60
2023/10/24 11:58:01;;;;;;;4.93;2.63;;;;;;;;;;5015575;28;20217;-59
2023/10/24 12:00:31;;;;;;;6.72;2.75;;;;;;;;;;5015258;28;20214;-60
2023/10/24 12:03:03;;;;;;;5.65;2.47;;;;;;;;;;5015762;28;20203;-60
2023/10/24 12:05:31;;;;;;;4.57;2.13;;;;;;;;;;5016576;28;20221;-60
2023/10/24 12:08:00;;;;;;;5.90;2.63;;;;;;;;;;5016340;28;20206;-59
2023/10/24 12:10:28;;;;;;;3.85;2.45;;;;;;;;;;5016449;28;20546;-60
2023/10/24 12:12:57;;;;;;;6.20;2.58;;;;;;;;;;5015265;28;20226;-60
2023/10/24 12:15:25;;;;;;;4.43;2.58;;;;;;;;;;5014356;28;20237;-60
2023/10/24 12:17:52;;;;;;;5.82;2.55;;;;;;;;;;5014742;28;20497;-60
2023/10/24 12:20:20;;;;;;;4.30;2.38;;;;;;;;;;5015344;28;20217;-60
2023/10/24 12:22:48;;;;;;;3.58;2.60;;;;;;;;;;5015952;28;20586;-60
2023/10/24 12:25:17;;;;;;;5.45;2.53;;;;;;;;;;5014012;28;20234;-60
2023/10/24 12:27:45;;;;;;;4.22;2.65;;;;;;;;;;5015151;28;20253;-60
2023/10/24 12:30:13;;;;;;;3.95;2.88;;;;;;;;;;5014786;28;20210;-61
2023/10/24 12:32:42;;;;;;;4.82;2.50;;;;;;;;;;5014964;28;20292;-61
2023/10/24 12:35:10;;;;;;;4.43;2.50;;;;;;;;;;5014219;28;20285;-61
2023/10/24 12:37:37;;;;;;;4.00;2.67;;;;;;;;;;5014744;28;20284;-60
2023/10/24 12:40:06;;;;;;;5.25;2.60;;;;;;;;;;5014065;28;20471;-59
2023/10/24 12:42:38;;;;;;;9.40;2.50;;;;;;;;;;5013871;28;20199;-60
2023/10/24 12:45:06;;;;;;;7.35;2.75;;;;;;;;;;5013129;28;20202;-59
2023/10/24 12:47:34;;;;;;;4.07;2.20;;;;;;;;;;5014100;28;20306;-59
2023/10/24 12:50:03;;;;;;;4.13;2.33;;;;;;;;;;5014349;28;20205;-61
2023/10/24 12:52:30;;;;;;;5.15;2.50;;;;;;;;;;5013798;28;20233;-61
2023/10/24 12:54:57;;;;;;;7.72;2.83;;;;;;;;;;5014148;28;20202;-59
2023/10/24 12:57:25;;;;;;;6.57;2.70;;;;;;;;;;5013775;28;20210;-59
2023/10/24 12:59:54;;;;;;;7.45;2.83;;;;;;;;;;5013779;28;20726;-59
2023/10/24 13:02:21;;;;;;;6.85;2.38;;;;;;;;;;5015362;28;20753;-59
2023/10/24 13:04:49;;;;;;;4.55;2.75;;;;;;;;;;5014785;28;20245;-58
2023/10/24 13:07:16;;;;;;;4.05;2.28;;;;;;;;;;5014619;28;20236;-58
2023/10/24 13:09:44;;;;;;;5.90;2.45;;;;;;;;;;5015097;28;20634;-58
2023/10/24 13:12:12;;;;;;;5.47;2.83;;;;;;;;;;5014799;28;20228;-58
2023/10/24 13:14:39;;;;;;;6.22;2.80;;;;;;;;;;5015614;28;20206;-59
2023/10/24 13:17:08;;;;;;;5.18;2.78;;;;;;;;;;5013665;28;20213;-59
2023/10/24 13:19:36;;;;;;;5.63;2.45;;;;;;;;;;5014162;28;20194;-59
2023/10/24 13:22:03;;;;;;;3.97;2.42;;;;;;;;;;5014700;28;20202;-59
2023/10/24 13:24:32;;;;;;;6.97;2.30;;;;;;;;;;5013625;28;20234;-59
2023/10/24 13:27:00;;;;;;;4.55;2.22;;;;;;;;;;5014703;28;20198;-59
2023/10/24 13:29:27;;;;;;;3.35;2.30;;;;;;;;;;5013788;28;20232;-59
2023/10/24 13:31:55;;;;;;;6.00;2.60;;;;;;;;;;5014170;28;20230;-58
2023/10/24 13:34:24;;;;;;;4.05;2.60;;;;;;;;;;5014144;28;20297;-59
2023/10/24 13:36:53;;;;;;;5.13;2.38;;;;;;;;;;5013515;28;20263;-58
2023/10/24 13:39:20;;;;;;;4.53;2.95;;;;;;;;;;5014561;28;20206;-59
2023/10/24 13:41:48;;;;;;;4.93;2.58;;;;;;;;;;5013950;28;20207;-59
2023/10/24 13:44:17;;;;;;;5.10;2.30;;;;;;;;;;5014110;28;20703;-59
2023/10/24 13:46:45;;;;;;;3.33;2.35;;;;;;;;;;5014067;28;20234;-59
2023/10/24 13:49:13;;;;;;;5.28;2.40;;;;;;;;;;5014152;28;20722;-59
2023/10/24 13:51:43;;;;;;;3.63;2.72;;;;;;;;;;5013248;28;20206;-59
2023/10/24 13:54:11;;;;;;;3.17;2.20;;;;;;;;;;5014186;28;20206;-59
2023/10/24 13:56:39;;;;;;;4.28;2.00;;;;;;;;;;5016321;28;20277;-59
2023/10/24 13:59:07;;;;;;;6.03;2.25;;;;;;;;;;5017567;28;20483;-59
2023/10/24 14:01:36;;;;;;;5.43;2.40;;;;;;;;;;5018570;28;20288;-59
2023/10/24 14:04:04;;;;;;;2.85;2.17;;;;;;;;;;5018546;28;20281;-59
2023/10/24 14:06:33;;;;;;;4.55;2.20;;;;;;;;;;5017754;28;20471;-59
2023/10/24 14:09:02;;;;;;;3.95;2.38;;;;;;;;;;5018186;28;20509;-59
2023/10/24 14:11:33;;;;;;;4.32;1.98;;;;;;;;;;5017454;28;20285;-59
2023/10/24 14:14:00;;;;;;;4.07;2.22;;;;;;;;;;5017276;28;20254;-59
2023/10/24 14:16:28;;;;;;;4.32;1.90;;;;;;;;;;5017602;28;20237;-59
2023/10/24 14:18:56;;;;;;;2.42;2.08;;;;;;;;;;5016720;28;20493;-59
2023/10/24 14:21:24;;;;;;;2.67;1.98;;;;;;;;;;5017756;28;20198;-59
2023/10/24 14:23:52;;;;;;;5.18;2.00;;;;;;;;;;5017455;28;20635;-59
2023/10/24 14:26:21;;;;;;;3.78;2.42;;;;;;;;;;5015904;28;20217;-59
2023/10/24 14:28:49;;;;;;;4.40;2.38;;;;;;;;;;5017206;28;20343;-59
2023/10/24 14:31:18;;;;;;;3.35;2.03;;;;;;;;;;5017687;28;20233;-59
2023/10/24 14:33:45;;;;;;;3.70;2.30;;;;;;;;;;5017202;28;20222;-59
2023/10/24 14:36:12;;;;;;;6.10;2.33;;;;;;;;;;5016864;28;20212;-59
2023/10/24 14:38:41;;;;;;;2.92;2.60;;;;;;;;;;5018190;28;20207;-59
2023/10/24 14:41:08;;;;;;;2.95;2.00;;;;;;;;;;5017576;28;20202;-59
2023/10/24 14:43:39;;;;;;;3.38;2.00;;;;;;;;;;5017327;28;20210;-59
2023/10/24 14:46:07;;;;;;;2.90;2.00;;;;;;;;;;5017954;28;20214;-59
2023/10/24 14:48:35;;;;;;;3.05;2.20;;;;;;;;;;5017530;28;20830;-59